Marshall, IN (47859)

10:01 AM EDT on September 02, 2014 (GMT -0400)
KINROCKV2 | Change Station
CLOSE
Current Station
Personal Weather Station
Location: Rockville, IN
Elevation: 702 ft
Nearby Weather Stations

Elev 702 ft 39.77 °N, 87.22 °W | Updated 7 seconds ago

Overcast
Overcast
69.4 °F
Feels Like 69.4 °F
N
3.0
Wind Variable Wind from South
Gusts 6.0 mph

Today
High -- | Low -- °F
--% Chance of Precip.
Yesterday
High -- | Low -- °F
Precip. -- in
7:17 AM 8:18 PM
First Quarter, 51% visible
Pressure 29.90 in
Visibility 10.0 miles
Clouds Overcast 700 ft
Dew Point 69 °F
Humidity 100%
Rainfall 0.95 in
Snow Depth Not available.
UV 1 out of 12
Pollen 3.50 out of 12
Air Quality Not available.
Flu Activity Not available.
METAR KDNV 021335Z AUTO 22006KT 10SM OVC007 20/19 A2990 RMK AO2 T01990191

More Conditions Fewer Conditions

Pressure 29.90 in
Visibility 10.0 miles
Clouds Overcast 700 ft
Dew Point 69 °F
Humidity 100%
Rainfall 0.95 in
Snow Depth Not available.
UV 1 out of 12
Pollen 3.50 out of 12
Air Quality Not available.
Flu Activity Not available.
METAR KDNV 021335Z AUTO 22006KT 10SM OVC007 20/19 A2990 RMK AO2 T01990191

More Conditions Fewer Conditions

10-Day Weather Forecast

Almanac

Astronomy

Sep. 02, 2014 Rise Set
Actual Time 7:17 AM EDT 8:18 PM EDT
Civil Twilight 6:49 AM EDT 8:46 PM EDT
Nautical Twilight 6:16 AM EDT 9:18 PM EDT
Astronomical Twilight 5:42 AM EDT 9:53 PM EDT
Moon 3:00 PM EDT 12:21 AM EDT
Length of Visible Light 13h 56m
Length of Day
13h 00m
Tomorrow will be 2m 32s shorter.
First Quarter, 51% of the Moon is Illuminated
Today
First Quarter
Sep 8
Full
Sep 15
Last Quarter
Sep 24
New
Oct 1
First Quarter

Today's Extremes

State Highs State Lows

Community

WunderPhotos

Upload Photos

1,749,670 photos uploaded!

WunderBlogs® & News

Nearby

Snow Depth

Station Depth Elevation
No new snow has been reported.

Earthquake Activity

City Distance Mag. Time & Date
No recent earthquake activity has been reported nearby.
Minimum magnitude displayed is 2.5.

Coastal Water Temperatures

Place Temperature
No Stations Reporting

Nearby Weather Stations